createdAt,value
2019-05-28T00:01:26.759Z,96379.83
2019-05-28T00:03:54.385Z,96377.51
2019-05-28T00:06:22.031Z,96376.03
2019-05-28T00:08:49.488Z,96366.58
2019-05-28T00:11:16.937Z,96370.32
2019-05-28T00:13:44.395Z,96363.26
2019-05-28T00:16:11.823Z,96359.45
2019-05-28T00:18:39.270Z,96356.15
2019-05-28T00:21:06.733Z,96354.50
2019-05-28T00:23:34.189Z,96355.23
2019-05-28T00:26:01.646Z,96353.17
2019-05-28T00:28:29.111Z,96351.16
2019-05-28T00:30:56.576Z,96348.88
2019-05-28T00:33:24.044Z,96343.01
2019-05-28T00:35:51.507Z,96338.30
2019-05-28T00:38:18.961Z,96337.58
2019-05-28T00:40:47.349Z,96345.97
2019-05-28T00:43:14.866Z,96349.52
2019-05-28T00:45:42.381Z,96337.39
2019-05-28T00:48:09.821Z,96327.38
2019-05-28T00:50:37.301Z,96330.43
2019-05-28T00:53:04.887Z,96328.88
2019-05-28T00:55:32.459Z,96330.97
2019-05-28T00:57:59.958Z,96332.37
2019-05-28T01:00:38.209Z,96331.77
2019-05-28T01:03:05.671Z,96323.77
2019-05-28T01:05:33.132Z,96321.81
2019-05-28T01:08:00.595Z,96319.44
2019-05-28T01:10:28.879Z,96319.68
2019-05-28T01:12:56.323Z,96306.48
2019-05-28T01:15:23.774Z,96304.80
2019-05-28T01:17:51.206Z,96294.77
2019-05-28T01:20:19.119Z,96297.72
2019-05-28T01:22:46.559Z,96300.78
2019-05-28T01:25:16.620Z,96299.05
2019-05-28T01:27:41.547Z,96299.55
2019-05-28T01:30:09.016Z,96299.22
2019-05-28T01:32:36.536Z,96300.09
2019-05-28T01:35:04.756Z,96290.98
2019-05-28T01:37:32.332Z,96292.52
2019-05-28T01:39:59.820Z,96288.34
2019-05-28T01:42:27.269Z,96290.34
2019-05-28T01:44:54.722Z,96288.11
2019-05-28T01:47:22.190Z,96285.97
2019-05-28T01:49:49.635Z,96285.97
2019-05-28T01:52:17.099Z,96296.05
2019-05-28T01:54:44.562Z,96294.91
2019-05-28T01:57:12.010Z,96286.94
2019-05-28T01:59:39.466Z,96294.01
2019-05-28T02:02:06.934Z,96295.02
2019-05-28T02:04:34.391Z,96295.78
2019-05-28T02:07:01.864Z,96294.47
2019-05-28T02:09:29.299Z,96296.16
2019-05-28T02:11:56.750Z,96290.50
2019-05-28T02:14:24.192Z,96297.06
2019-05-28T02:16:51.654Z,96289.83
2019-05-28T02:19:19.090Z,96298.48
2019-05-28T02:21:46.534Z,96297.09
2019-05-28T02:24:14.001Z,96297.75
2019-05-28T02:26:41.501Z,96295.38
2019-05-28T02:29:08.958Z,96291.27
2019-05-28T02:31:36.413Z,96295.09
2019-05-28T02:34:03.860Z,96289.98
2019-05-28T02:36:31.310Z,96281.52
2019-05-28T02:38:58.748Z,96293.41
2019-05-28T02:41:26.256Z,96290.48
2019-05-28T02:43:53.752Z,96293.68
2019-05-28T02:46:21.202Z,96288.30
2019-05-28T02:48:48.659Z,96280.66
2019-05-28T02:51:16.225Z,96291.05
2019-05-28T02:53:43.808Z,96285.03
2019-05-28T02:56:11.385Z,96282.60
2019-05-28T02:58:38.855Z,96272.17
2019-05-28T03:01:06.306Z,96275.69
2019-05-28T03:03:33.820Z,96279.93
2019-05-28T03:06:01.301Z,96278.09
2019-05-28T03:08:29.719Z,96280.09
2019-05-28T03:11:03.566Z,96284.38
2019-05-28T03:13:24.814Z,96284.56
2019-05-28T03:15:52.294Z,96283.59
2019-05-28T03:18:19.787Z,96279.59
2019-05-28T03:20:47.249Z,96277.72
2019-05-28T03:23:14.690Z,96282.96
2019-05-28T03:25:42.154Z,96276.94
2019-05-28T03:28:09.615Z,96280.03
2019-05-28T03:30:37.084Z,96280.63
2019-05-28T03:33:04.599Z,96278.77
2019-05-28T03:35:32.119Z,96273.80
2019-05-28T03:37:59.571Z,96278.57
2019-05-28T03:40:44.917Z,96281.31
2019-05-28T03:43:12.440Z,96272.14
2019-05-28T03:45:39.897Z,96280.07
2019-05-28T03:48:07.349Z,96279.75
2019-05-28T03:50:34.814Z,96279.02
2019-05-28T03:53:02.284Z,96283.13
2019-05-28T03:55:29.739Z,96283.27
2019-05-28T03:57:57.198Z,96282.31
2019-05-28T04:00:24.672Z,96286.98
2019-05-28T04:02:52.180Z,96294.13
2019-05-28T04:05:19.649Z,96293.64
2019-05-28T04:07:47.151Z,96288.11
2019-05-28T04:10:14.640Z,96291.90
2019-05-28T04:12:42.113Z,96291.59
2019-05-28T04:15:09.600Z,96288.34
2019-05-28T04:17:37.050Z,96289.26
2019-05-28T04:20:05.438Z,96295.78
2019-05-28T04:22:32.906Z,96293.86
2019-05-28T04:25:00.507Z,96295.31
2019-05-28T04:27:27.983Z,96288.98
2019-05-28T04:32:22.236Z,96299.44
2019-05-28T04:34:49.701Z,96299.89
2019-05-28T04:37:17.220Z,96298.38
2019-05-28T04:39:44.713Z,96304.20
2019-05-28T04:42:12.197Z,96299.12
2019-05-28T04:44:39.658Z,96308.16
2019-05-28T04:47:08.765Z,96302.41
2019-05-28T04:49:35.048Z,96313.03
2019-05-28T04:52:02.509Z,96311.02
2019-05-28T04:54:30.005Z,96321.89
2019-05-28T04:56:57.516Z,96321.80
2019-05-28T04:59:25.047Z,96326.29
2019-05-28T05:01:52.570Z,96322.48
2019-05-28T05:04:20.054Z,96331.50
2019-05-28T05:06:47.514Z,96332.88
2019-05-28T05:09:15.113Z,96337.97
2019-05-28T05:11:42.571Z,96335.07
2019-05-28T05:14:10.122Z,96336.28
2019-05-28T05:16:37.961Z,96338.83
2019-05-28T05:19:05.465Z,96346.64
2019-05-28T05:21:35.637Z,96343.59
2019-05-28T05:24:00.507Z,96338.73
2019-05-28T05:26:28.033Z,96350.67
2019-05-28T05:28:55.643Z,96344.92
2019-05-28T05:31:23.094Z,96354.52
2019-05-28T05:33:50.603Z,96356.27
2019-05-28T05:36:18.114Z,96358.75
2019-05-28T05:38:45.567Z,96363.78
2019-05-28T05:41:13.035Z,96368.55
2019-05-28T05:43:40.545Z,96361.31
2019-05-28T05:46:08.039Z,96366.84
2019-05-28T05:48:35.606Z,96373.33
2019-05-28T05:51:03.160Z,96374.38
2019-05-28T05:53:30.627Z,96380.73
2019-05-28T05:55:58.103Z,96379.48
2019-05-28T05:58:25.583Z,96375.13
2019-05-28T06:00:53.093Z,96392.66
2019-05-28T06:03:38.939Z,96396.20
2019-05-28T06:05:48.454Z,96394.55
2019-05-28T06:08:15.978Z,96391.55
2019-05-28T06:10:43.482Z,96394.61
2019-05-28T06:13:11.781Z,96397.40
2019-05-28T06:15:39.597Z,96401.77
2019-05-28T06:18:07.210Z,96407.26
2019-05-28T06:20:35.110Z,96405.61
2019-05-28T06:23:02.775Z,96416.32
2019-05-28T06:25:31.067Z,96420.09
2019-05-28T06:27:58.544Z,96426.31
2019-05-28T06:30:26.015Z,96421.54
2019-05-28T06:32:53.556Z,96427.36
2019-05-28T06:35:21.064Z,96430.30
2019-05-28T06:37:48.619Z,96425.27
2019-05-28T06:40:16.189Z,96435.51
2019-05-28T06:42:43.675Z,96428.91
2019-05-28T06:45:11.264Z,96435.34
2019-05-28T06:47:38.716Z,96438.47
2019-05-28T06:50:09.240Z,96444.25
2019-05-28T06:52:36.536Z,96448.36
2019-05-28T06:55:04.036Z,96449.55
2019-05-28T06:57:31.513Z,96456.19
2019-05-28T06:59:58.991Z,96461.89
2019-05-28T07:02:26.571Z,96469.41
2019-05-28T07:04:54.047Z,96463.92
2019-05-28T07:07:21.514Z,96469.70
2019-05-28T07:09:48.971Z,96466.13
2019-05-28T07:12:18.150Z,96471.45
2019-05-28T07:14:45.919Z,96471.58
2019-05-28T07:17:13.451Z,96471.75
2019-05-28T07:19:40.958Z,96469.70
2019-05-28T07:22:08.444Z,96476.38
2019-05-28T07:24:36.019Z,96480.95
2019-05-28T07:27:03.615Z,96484.78
2019-05-28T07:29:31.607Z,96489.65
2019-05-28T07:31:59.155Z,96489.44
2019-05-28T07:34:30.658Z,96489.19
2019-05-28T07:36:54.144Z,96487.84
2019-05-28T07:39:21.742Z,96485.48
2019-05-28T07:41:49.312Z,96501.42
2019-05-28T07:44:16.845Z,96497.36
2019-05-28T07:46:45.306Z,96498.95
2019-05-28T07:49:12.783Z,96502.34
2019-05-28T07:51:40.359Z,96508.66
2019-05-28T07:54:07.880Z,96514.47
2019-05-28T07:56:35.379Z,96515.23
2019-05-28T07:59:02.831Z,96517.21
2019-05-28T08:01:30.478Z,96515.06
2019-05-28T08:03:58.268Z,96514.42
2019-05-28T08:06:25.739Z,96517.89
2019-05-28T08:08:53.398Z,96526.12
2019-05-28T08:11:20.977Z,96523.42
2019-05-28T08:13:52.264Z,96522.38
2019-05-28T08:16:18.729Z,96514.34
2019-05-28T08:18:43.609Z,96520.14
2019-05-28T08:23:44.397Z,96520.62
2019-05-28T08:26:12.067Z,96520.32
2019-05-28T08:28:39.582Z,96526.20
2019-05-28T08:31:15.971Z,96523.14
2019-05-28T08:33:34.623Z,96513.19
2019-05-28T08:36:02.281Z,96514.56
2019-05-28T08:38:29.788Z,96511.56
2019-05-28T08:40:57.691Z,96499.02
2019-05-28T08:43:25.158Z,96508.31
2019-05-28T08:45:52.670Z,96505.94
2019-05-28T08:48:20.302Z,96499.55
2019-05-28T08:50:48.165Z,96510.00
2019-05-28T08:53:15.707Z,96511.48
2019-05-28T08:55:43.219Z,96511.35
2019-05-28T08:58:12.444Z,96516.11
2019-05-28T09:00:41.952Z,96517.81
2019-05-28T09:03:09.512Z,96515.54
2019-05-28T09:05:37.379Z,96522.50
2019-05-28T09:08:04.894Z,96520.57
2019-05-28T09:10:32.457Z,96521.88
2019-05-28T09:12:59.461Z,96525.43
2019-05-28T09:15:26.487Z,96536.12
2019-05-28T09:17:53.964Z,96527.22
2019-05-28T09:20:22.076Z,96529.86
2019-05-28T09:22:49.678Z,96536.52
2019-05-28T09:25:17.229Z,96545.96
2019-05-28T09:27:44.318Z,96544.56
2019-05-28T09:30:11.384Z,96559.70
2019-05-28T09:32:38.925Z,96563.41
2019-05-28T09:35:06.620Z,96579.58
2019-05-28T09:37:34.127Z,96586.02
2019-05-28T09:40:01.796Z,96591.47
2019-05-28T09:42:29.387Z,96609.84
2019-05-28T09:44:56.904Z,96625.41
2019-05-28T09:47:24.417Z,96641.05
2019-05-28T09:49:56.142Z,96653.34
2019-05-28T09:52:19.983Z,96651.24
2019-05-28T09:54:47.470Z,96652.70
2019-05-28T09:57:15.507Z,96639.98
2019-05-28T09:59:43.939Z,96640.70
2019-05-28T10:02:11.462Z,96640.97
2019-05-28T10:04:49.302Z,96636.32
2019-05-28T10:07:06.759Z,96626.08
2019-05-28T10:09:34.207Z,96617.35
2019-05-28T10:12:01.687Z,96615.67
2019-05-28T10:14:29.220Z,96615.81
2019-05-28T10:16:56.681Z,96622.59
2019-05-28T10:19:24.182Z,96631.31
2019-05-28T10:21:51.671Z,96637.35
2019-05-28T10:24:19.219Z,96645.64
2019-05-28T10:26:46.668Z,96639.39
2019-05-28T10:29:14.244Z,96646.25
2019-05-28T10:31:41.752Z,96649.11
2019-05-28T10:34:09.219Z,96648.06
2019-05-28T10:36:38.174Z,96656.61
2019-05-28T10:39:05.067Z,96647.29
2019-05-28T10:41:32.529Z,96645.77
2019-05-28T10:44:00.023Z,96649.95
2019-05-28T10:46:27.532Z,96654.53
2019-05-28T10:48:55.016Z,96646.42
2019-05-28T10:51:22.466Z,96652.74
2019-05-28T10:53:49.944Z,96645.58
2019-05-28T10:56:17.443Z,96649.70
2019-05-28T10:58:44.919Z,96655.19
2019-05-28T11:01:12.609Z,96651.91
2019-05-28T11:03:40.091Z,96652.84
2019-05-28T11:06:07.606Z,96656.23
2019-05-28T11:08:35.078Z,96657.32
2019-05-28T11:11:02.535Z,96657.27
2019-05-28T11:13:30.090Z,96669.05
2019-05-28T11:15:57.575Z,96668.02
2019-05-28T11:18:25.118Z,96670.38
2019-05-28T11:20:52.678Z,96676.59
2019-05-28T11:23:20.180Z,96674.91
2019-05-28T11:25:47.890Z,96677.66
2019-05-28T11:28:15.408Z,96678.48
2019-05-28T11:30:42.893Z,96684.63
2019-05-28T11:33:10.455Z,96683.84
2019-05-28T11:35:37.952Z,96687.52
2019-05-28T11:38:05.463Z,96691.42
2019-05-28T11:40:32.979Z,96695.45
2019-05-28T11:43:00.453Z,96700.05
2019-05-28T11:45:27.995Z,96692.58
2019-05-28T11:47:55.458Z,96691.95
2019-05-28T11:50:22.955Z,96697.37
2019-05-28T11:52:50.588Z,96690.77
2019-05-28T11:55:18.301Z,96698.27
2019-05-28T11:57:45.834Z,96695.80
2019-05-28T12:00:13.346Z,96695.52
2019-05-28T12:02:40.968Z,96700.17
2019-05-28T12:05:08.499Z,96697.24
2019-05-28T12:07:36.064Z,96696.05
2019-05-28T12:10:04.289Z,96694.52
2019-05-28T12:12:31.819Z,96702.88
2019-05-28T12:14:59.278Z,96703.09
2019-05-28T12:17:41.811Z,96704.94
2019-05-28T12:19:54.371Z,96704.14
2019-05-28T12:22:21.852Z,96713.19
2019-05-28T12:24:49.452Z,96711.52
2019-05-28T12:27:16.954Z,96710.88
2019-05-28T12:29:51.733Z,96715.11
2019-05-28T12:32:12.063Z,96715.94
2019-05-28T12:34:40.084Z,96715.87
2019-05-28T12:37:07.610Z,96714.00
2019-05-28T12:39:35.106Z,96708.52
2019-05-28T12:42:06.942Z,96705.91
2019-05-28T12:44:41.693Z,96700.30
2019-05-28T12:46:57.662Z,96701.52
2019-05-28T12:49:25.207Z,96706.88
2019-05-28T12:51:52.690Z,96699.35
2019-05-28T12:54:20.148Z,96688.22
2019-05-28T12:56:47.679Z,96697.20
2019-05-28T12:59:15.182Z,96698.95
2019-05-28T13:01:42.830Z,96695.14
2019-05-28T13:04:10.518Z,96686.59
2019-05-28T13:06:38.990Z,96696.42
2019-05-28T13:09:06.622Z,96700.50
2019-05-28T13:11:34.075Z,96695.15
2019-05-28T13:14:01.566Z,96700.59
2019-05-28T13:16:29.028Z,96706.86
2019-05-28T13:18:56.533Z,96701.28
2019-05-28T13:21:24.045Z,96692.56
2019-05-28T13:23:51.647Z,96692.34
2019-05-28T13:26:19.026Z,96692.61
2019-05-28T13:28:46.648Z,96689.50
2019-05-28T13:31:14.116Z,96694.55
2019-05-28T13:33:41.606Z,96687.25
2019-05-28T13:36:09.181Z,96686.77
2019-05-28T13:38:36.721Z,96695.94
2019-05-28T13:41:04.381Z,96692.16
2019-05-28T13:43:31.827Z,96696.24
2019-05-28T13:45:59.296Z,96700.64
2019-05-28T13:48:26.780Z,96698.82
2019-05-28T13:50:54.401Z,96697.62
2019-05-28T13:53:21.889Z,96700.56
2019-05-28T13:55:49.487Z,96705.56
2019-05-28T13:58:16.963Z,96699.04
2019-05-28T14:00:44.486Z,96698.59
2019-05-28T14:03:12.164Z,96702.41
2019-05-28T14:05:39.677Z,96698.17
2019-05-28T14:08:07.187Z,96708.05
2019-05-28T14:10:34.729Z,96708.34
2019-05-28T14:13:02.328Z,96714.39
2019-05-28T14:15:30.016Z,96717.25
2019-05-28T14:17:57.486Z,96718.36
2019-05-28T14:20:25.282Z,96725.47
2019-05-28T14:22:52.768Z,96727.02
2019-05-28T14:25:20.296Z,96734.55
2019-05-28T14:27:47.835Z,96730.67
2019-05-28T14:30:15.342Z,96735.02
2019-05-28T14:32:42.837Z,96742.23
2019-05-28T14:35:10.422Z,96745.36
2019-05-28T14:37:37.919Z,96746.27
2019-05-28T14:40:05.392Z,96747.37
2019-05-28T14:42:33.003Z,96736.61
2019-05-28T14:45:00.408Z,96735.36
2019-05-28T14:47:27.867Z,96730.23
2019-05-28T14:49:55.339Z,96725.13
2019-05-28T14:52:22.830Z,96718.94
2019-05-28T14:54:50.442Z,96718.30
2019-05-28T14:57:17.996Z,96727.03
2019-05-28T14:59:45.755Z,96725.58
2019-05-28T15:02:13.732Z,96724.21
2019-05-28T15:04:41.256Z,96726.55
2019-05-28T15:07:08.861Z,96730.61
2019-05-28T15:09:36.498Z,96731.17
2019-05-28T15:12:04.125Z,96722.25
2019-05-28T15:14:31.681Z,96722.54
2019-05-28T15:16:59.184Z,96727.61
2019-05-28T15:19:26.810Z,96733.20
2019-05-28T15:21:54.982Z,96738.27
2019-05-28T15:24:22.443Z,96742.25
2019-05-28T15:26:50.202Z,96742.69
2019-05-28T15:29:17.670Z,96747.45
2019-05-28T15:31:45.139Z,96749.76
2019-05-28T15:34:12.807Z,96763.48
2019-05-28T15:36:40.275Z,96774.29
2019-05-28T15:39:07.764Z,96787.05
2019-05-28T15:41:35.300Z,96784.89
2019-05-28T15:44:02.934Z,96784.43
2019-05-28T15:46:30.418Z,96793.02
2019-05-28T15:48:57.963Z,96783.80
2019-05-28T15:51:25.552Z,96772.09
2019-05-28T15:53:53.125Z,96769.34
2019-05-28T15:56:20.606Z,96762.42
2019-05-28T15:58:48.097Z,96768.05
2019-05-28T16:01:15.554Z,96761.91
2019-05-28T16:03:43.020Z,96763.84
2019-05-28T16:06:10.697Z,96768.37
2019-05-28T16:08:38.184Z,96766.42
2019-05-28T16:11:05.715Z,96772.33
2019-05-28T16:13:33.240Z,96767.34
2019-05-28T16:16:00.723Z,96770.96
2019-05-28T16:18:28.170Z,96772.84
2019-05-28T16:20:55.683Z,96775.70
2019-05-28T16:23:23.384Z,96779.80
2019-05-28T16:25:51.476Z,96778.73
2019-05-28T16:28:19.016Z,96780.25
2019-05-28T16:30:46.502Z,96782.50
2019-05-28T16:33:14.027Z,96778.58
2019-05-28T16:35:41.574Z,96781.34
2019-05-28T16:38:09.065Z,96780.65
2019-05-28T16:40:36.675Z,96782.67
2019-05-28T16:43:04.179Z,96777.41
2019-05-28T16:45:32.359Z,96781.93
2019-05-28T16:47:59.924Z,96774.63
2019-05-28T16:50:27.421Z,96778.50
2019-05-28T16:52:54.928Z,96782.20
2019-05-28T16:55:22.454Z,96779.74
2019-05-28T16:57:49.956Z,96790.95
2019-05-28T17:00:17.475Z,96788.31
2019-05-28T17:02:44.954Z,96783.09
2019-05-28T17:05:12.456Z,96792.73
2019-05-28T17:07:40.077Z,96794.76
2019-05-28T17:10:07.576Z,96791.59
2019-05-28T17:12:35.268Z,96793.92
2019-05-28T17:15:03.443Z,96796.33
2019-05-28T17:17:30.966Z,96793.09
2019-05-28T17:19:59.030Z,96798.66
2019-05-28T17:22:26.483Z,96799.09
2019-05-28T17:24:54.052Z,96796.59
2019-05-28T17:27:21.508Z,96802.70
2019-05-28T17:29:50.687Z,96808.53
2019-05-28T17:32:16.597Z,96802.88
2019-05-28T17:34:44.096Z,96800.84
2019-05-28T17:37:11.538Z,96802.72
2019-05-28T17:39:39.638Z,96802.19
2019-05-28T17:42:07.139Z,96814.41
2019-05-28T17:44:34.625Z,96811.83
2019-05-28T17:47:02.180Z,96818.75
2019-05-28T17:49:29.651Z,96818.41
2019-05-28T17:51:57.144Z,96815.66
2019-05-28T17:54:25.284Z,96820.20
2019-05-28T17:56:52.956Z,96830.28
2019-05-28T17:59:20.415Z,96836.70
2019-05-28T18:01:47.959Z,96844.83
2019-05-28T18:04:15.467Z,96856.04
2019-05-28T18:06:43.001Z,96859.13
2019-05-28T18:09:10.564Z,96847.02
2019-05-28T18:11:38.051Z,96847.39
2019-05-28T18:14:05.551Z,96851.03
2019-05-28T18:16:33.359Z,96853.19
2019-05-28T18:19:01.072Z,96862.70
2019-05-28T18:21:28.453Z,96864.14
2019-05-28T18:23:55.985Z,96869.61
2019-05-28T18:26:24.302Z,96872.81
2019-05-28T18:28:51.837Z,96871.77
2019-05-28T18:31:19.478Z,96874.34
2019-05-28T18:33:47.013Z,96881.88
2019-05-28T18:36:18.625Z,96879.31
2019-05-28T18:38:46.154Z,96878.94
2019-05-28T18:41:21.546Z,96875.36
2019-05-28T18:43:41.620Z,96880.11
2019-05-28T18:46:09.301Z,96885.23
2019-05-28T18:48:38.440Z,96878.80
2019-05-28T18:51:04.624Z,96889.50
2019-05-28T18:53:32.176Z,96883.62
2019-05-28T18:56:08.517Z,96886.01
2019-05-28T18:58:27.373Z,96881.45
2019-05-28T19:00:54.778Z,96884.02
2019-05-28T19:03:22.272Z,96882.42
2019-05-28T19:05:50.035Z,96889.13
2019-05-28T19:08:17.511Z,96883.95
2019-05-28T19:10:44.996Z,96896.72
2019-05-28T19:13:12.482Z,96898.98
2019-05-28T19:15:39.994Z,96898.48
2019-05-28T19:18:08.310Z,96904.94
2019-05-28T19:20:35.852Z,96914.12
2019-05-28T19:23:03.335Z,96913.51
2019-05-28T19:25:30.843Z,96912.20
2019-05-28T19:27:58.466Z,96911.05
2019-05-28T19:30:31.536Z,96908.28
2019-05-28T19:32:59.030Z,96916.30
2019-05-28T19:35:26.919Z,96923.88
2019-05-28T19:37:54.502Z,96920.66
2019-05-28T19:40:37.762Z,96933.41
2019-05-28T19:43:05.524Z,96943.02
2019-05-28T19:45:34.036Z,96942.12
2019-05-28T19:48:01.598Z,96948.48
2019-05-28T19:50:29.051Z,96953.74
2019-05-28T19:52:57.469Z,96968.27
2019-05-28T19:55:24.112Z,96983.00
2019-05-28T19:57:51.698Z,96985.67
2019-05-28T20:00:19.399Z,96993.84
2019-05-28T20:02:46.888Z,96990.74
2019-05-28T20:05:15.529Z,96983.75
2019-05-28T20:07:43.063Z,96984.13
2019-05-28T20:10:10.882Z,96982.13
2019-05-28T20:12:39.137Z,96983.61
2019-05-28T20:15:08.254Z,96981.94
2019-05-28T20:17:35.723Z,96980.45
2019-05-28T20:20:03.268Z,96983.54
2019-05-28T20:22:30.745Z,96979.91
2019-05-28T20:24:58.343Z,96982.77
2019-05-28T20:27:25.863Z,96986.83
2019-05-28T20:29:53.338Z,96995.83
2019-05-28T20:32:21.142Z,96995.58
2019-05-28T20:34:48.648Z,96992.08
2019-05-28T20:37:16.122Z,96997.47
2019-05-28T20:39:43.612Z,96995.43
2019-05-28T20:42:26.155Z,97006.70
2019-05-28T20:44:38.888Z,97003.42
2019-05-28T20:47:06.980Z,97002.41
2019-05-28T20:49:34.666Z,97006.28
2019-05-28T20:52:02.796Z,97003.59
2019-05-28T20:54:29.974Z,97009.89
2019-05-28T20:56:58.031Z,97010.16
2019-05-28T20:59:24.935Z,97007.28
2019-05-28T21:01:53.982Z,97012.27
2019-05-28T21:04:20.239Z,97006.02
2019-05-28T21:06:48.041Z,97010.05
2019-05-28T21:09:16.164Z,97010.47
2019-05-28T21:11:43.671Z,97009.02
2019-05-28T21:14:11.147Z,97007.43
2019-05-28T21:16:38.608Z,97010.89
2019-05-28T21:19:06.666Z,97015.56
2019-05-28T21:21:34.649Z,97015.53
2019-05-28T21:24:02.138Z,97015.22
2019-05-28T21:26:29.590Z,97015.63
2019-05-28T21:28:57.058Z,97011.63
2019-05-28T21:31:24.946Z,97017.68
2019-05-28T21:33:52.852Z,97018.66
2019-05-28T21:36:19.977Z,97020.64
2019-05-28T21:38:47.471Z,97022.72
2019-05-28T21:41:14.957Z,97024.77
2019-05-28T21:43:42.504Z,97028.11
2019-05-28T21:46:10.065Z,97026.65
2019-05-28T21:48:37.618Z,97023.05
2019-05-28T21:51:06.340Z,97028.80
2019-05-28T21:53:33.798Z,97031.08
2019-05-28T21:56:01.462Z,97040.61
2019-05-28T21:58:28.861Z,97035.58
2019-05-28T22:00:57.913Z,97035.30
2019-05-28T22:03:24.897Z,97042.57
2019-05-28T22:05:52.422Z,97040.84
2019-05-28T22:08:20.139Z,97039.80
2019-05-28T22:10:47.734Z,97035.58
2019-05-28T22:13:21.817Z,97041.61
2019-05-28T22:15:43.090Z,97045.12
2019-05-28T22:18:10.584Z,97048.08
2019-05-28T22:20:38.039Z,97048.09
2019-05-28T22:23:06.056Z,97046.13
2019-05-28T22:25:33.580Z,97044.59
2019-05-28T22:28:01.120Z,97047.70
2019-05-28T22:30:28.598Z,97042.45
2019-05-28T22:32:56.153Z,97048.05
2019-05-28T22:35:23.846Z,97043.75
2019-05-28T22:37:51.329Z,97048.42
2019-05-28T22:40:18.963Z,97044.08
2019-05-28T22:42:46.503Z,97049.30
2019-05-28T22:45:13.968Z,97047.28
2019-05-28T22:47:41.444Z,97046.95
2019-05-28T22:50:19.503Z,97050.31
2019-05-28T22:52:37.226Z,97055.11
2019-05-28T22:55:05.914Z,97065.81
2019-05-28T22:57:32.234Z,97058.31
2019-05-28T23:00:00.404Z,97060.56
2019-05-28T23:02:27.179Z,97060.66
2019-05-28T23:04:54.924Z,97065.23
2019-05-28T23:07:22.399Z,97063.14
2019-05-28T23:09:49.874Z,97069.66
2019-05-28T23:12:17.354Z,97066.11
2019-05-28T23:14:44.829Z,97058.94
2019-05-28T23:17:12.310Z,97065.34
2019-05-28T23:19:39.763Z,97069.80
2019-05-28T23:22:07.250Z,97065.18
2019-05-28T23:24:34.724Z,97061.02
2019-05-28T23:27:03.454Z,97059.92
2019-05-28T23:29:29.698Z,97062.84
2019-05-28T23:31:57.199Z,97058.55
2019-05-28T23:34:24.697Z,97060.66
2019-05-28T23:36:52.235Z,97062.75
2019-05-28T23:39:19.726Z,97068.75
2019-05-28T23:41:47.201Z,97075.06
2019-05-28T23:44:14.950Z,97074.44
2019-05-28T23:46:42.436Z,97081.71
2019-05-28T23:49:10.194Z,97080.37
2019-05-28T23:51:37.401Z,97079.47
2019-05-28T23:54:05.586Z,97078.41
2019-05-28T23:56:32.394Z,97076.52
2019-05-28T23:58:59.842Z,97075.72
